Time;durP1;ratioP1;P1;durP2;ratioP2;P2;SDS_P1;SDS_P2;PMS_P1;PMS_P2;Temp;Humidity;BMP_temperature;BMP_pressure;BME280_temperature;BME280_humidity;BME280_pressure;Samples;Min_cycle;Max_cycle;Signal;HPM_P1;HPM_P2
2023/12/04 08:22:19;;;;;;;41.35;14.32;;;-3.10;73.30;;;-6.61;100.00;95155.91;5106700;27;20573;-52
2023/12/04 08:24:45;;;;;;;39.65;15.48;;;-3.30;73.90;;;-6.31;100.00;95153.47;5085827;28;20042;-53
2023/12/04 08:27:10;;;;;;;36.95;13.90;;;-2.50;73.10;;;-6.08;100.00;95154.31;5087054;28;20019;-54
2023/12/04 08:29:36;;;;;;;39.40;15.55;;;-1.70;71.50;;;-5.91;100.00;95149.78;5083203;28;20568;-55
2023/12/04 08:32:02;;;;;;;40.75;16.20;;;-0.90;70.00;;;-5.66;100.00;95147.03;5085434;28;20023;-56
2023/12/04 08:34:28;;;;;;;39.33;16.00;;;-0.20;68.50;;;-5.69;100.00;95148.16;5087634;28;20617;-51
2023/12/04 08:36:54;;;;;;;39.97;16.20;;;0.30;67.00;;;-5.60;100.00;95169.69;5086166;28;20088;-56
2023/12/04 08:39:22;;;;;;;51.33;16.25;;;0.70;65.50;;;-5.51;100.00;95173.03;5087820;28;20023;-50
2023/12/04 08:41:48;;;;;;;43.08;15.32;;;0.80;64.60;;;-5.50;100.00;95177.22;5086134;28;20450;-55
2023/12/04 08:44:14;;;;;;;32.35;14.57;;;1.00;64.10;;;-5.37;100.00;95175.63;5087645;28;20028;-54
2023/12/04 08:46:42;;;;;;;36.80;15.10;;;1.10;63.80;;;-5.32;100.00;95175.13;5087148;28;20030;-53
2023/12/04 08:49:07;;;;;;;35.10;14.30;;;1.30;63.50;;;-5.23;100.00;95173.25;5074332;28;20020;-56
2023/12/04 08:51:33;;;;;;;35.30;15.13;;;1.50;63.30;;;-5.06;100.00;95171.31;5087473;28;20020;-57
2023/12/04 08:53:59;;;;;;;32.08;14.10;;;1.80;63.00;;;-4.85;100.00;95168.81;5085362;28;20467;-53
2023/12/04 08:56:25;;;;;;;35.20;15.20;;;2.10;62.60;;;-4.70;100.00;95167.03;5087464;28;20465;-55
2023/12/04 08:58:50;;;;;;;39.60;16.17;;;2.40;62.10;;;-4.54;100.00;95170.44;5088465;28;20107;-53
2023/12/04 09:01:17;;;;;;;39.95;16.02;;;2.80;61.40;;;-4.52;100.00;95171.03;5085232;28;20028;-54
2023/12/04 09:03:42;;;;;;;41.22;17.92;;;3.20;60.70;;;-4.28;100.00;95175.13;5070488;28;20031;-54
2023/12/04 09:06:09;;;;;;;38.55;16.83;;;3.60;60.00;;;-4.25;100.00;95159.16;5086039;28;20032;-52
2023/12/04 09:08:35;;;;;;;38.35;16.58;;;3.80;59.20;;;-4.49;100.00;95160.28;5086650;28;20051;-56
2023/12/04 09:11:01;;;;;;;44.38;17.23;;;4.00;58.40;;;-4.62;100.00;95154.91;5086868;28;20363;-56
2023/12/04 09:13:27;;;;;;;40.95;17.63;;;3.90;57.90;;;-4.69;100.00;95160.03;5085848;28;20020;-56
2023/12/04 09:15:53;;;;;;;43.05;18.23;;;3.80;57.50;;;-4.63;100.00;95155.91;5076279;28;20375;-56
2023/12/04 09:18:18;;;;;;;38.15;14.77;;;3.70;57.50;;;-4.61;100.00;95159.91;5086002;28;20034;-56
2023/12/04 09:20:44;;;;;;;33.50;15.13;;;3.60;57.70;;;-4.85;100.00;95168.03;5083304;28;20048;-54
2023/12/04 09:23:10;;;;;;;34.33;15.38;;;3.50;57.80;;;-4.49;100.00;95174.06;5081281;28;20544;-57
2023/12/04 09:25:36;;;;;;;38.60;15.15;;;3.50;58.10;;;-4.11;100.00;95186.13;5084970;28;20411;-55
2023/12/04 09:28:02;;;;;;;35.83;15.45;;;3.60;58.40;;;-3.78;100.00;95184.69;5086630;28;20043;-56
2023/12/04 09:30:28;;;;;;;36.17;15.60;;;3.90;58.70;;;-3.59;100.00;95177.25;5085379;28;20047;-59
2023/12/04 09:32:54;;;;;;;36.45;15.13;;;4.10;58.50;;;-3.39;100.00;95186.03;5075721;28;20489;-59
2023/12/04 09:35:20;;;;;;;35.65;15.68;;;4.30;58.40;;;-3.55;100.00;95181.09;5070078;28;20490;-58
2023/12/04 09:37:48;;;;;;;33.08;15.65;;;4.50;58.10;;;-3.29;100.00;95178.72;5072289;28;20020;-59
2023/12/04 09:40:15;;;;;;;32.30;15.07;;;4.60;57.80;;;-3.08;100.00;95177.06;5066014;28;20024;-55
2023/12/04 09:42:41;;;;;;;32.70;15.32;;;4.70;57.70;;;-2.83;100.00;95177.44;5069167;28;20048;-59
2023/12/04 09:45:09;;;;;;;33.95;16.05;;;5.10;57.70;;;-2.65;100.00;95180.34;5067153;28;20550;-55
2023/12/04 09:47:36;;;;;;;32.88;15.18;;;5.50;57.40;;;-2.48;100.00;95174.81;5066619;28;20828;-58
2023/12/04 09:50:03;;;;;;;31.27;14.75;;;5.80;57.00;;;-2.31;100.00;95162.28;5067927;28;20461;-60
2023/12/04 09:52:31;;;;;;;33.58;15.60;;;6.10;56.50;;;-2.26;100.00;95157.25;5070427;28;20064;-58
2023/12/04 09:54:57;;;;;;;29.98;14.73;;;6.20;56.30;;;-2.02;100.00;95153.34;5052506;28;20028;-60
2023/12/04 09:57:24;;;;;;;35.10;15.10;;;6.60;56.10;;;-1.89;100.00;95153.38;5072249;28;20099;-58
2023/12/04 09:59:52;;;;;;;28.58;14.82;;;6.90;55.80;;;-1.68;100.00;95147.19;5055726;28;20020;-60
2023/12/04 10:02:19;;;;;;;29.77;14.68;;;7.10;55.40;;;-1.74;100.00;95134.94;5061208;28;20052;-60
2023/12/04 10:04:46;;;;;;;37.55;15.60;;;7.20;55.10;;;-1.59;100.00;95126.91;5072096;28;20390;-60
2023/12/04 10:07:12;;;;;;;32.22;16.05;;;7.40;54.80;;;-1.55;100.00;95131.53;5056374;28;20023;-59
2023/12/04 10:09:38;;;;;;;32.15;15.55;;;7.50;54.60;;;-1.52;100.00;95125.09;5072068;28;20110;-60
2023/12/04 10:12:06;;;;;;;34.47;16.70;;;7.60;54.40;;;-1.58;100.00;95118.88;5072976;28;20161;-61
2023/12/04 10:14:32;;;;;;;32.20;16.70;;;7.80;53.90;;;-2.03;98.00;95112.59;5060499;28;20047;-62
2023/12/04 10:16:59;;;;;;;33.40;16.45;;;8.00;53.10;;;-1.75;98.68;95120.28;5070688;28;20057;-62
2023/12/04 10:19:31;;;;;;;32.10;17.35;;;8.30;52.60;;;-1.64;98.46;95133.53;5070230;28;20423;-62
2023/12/04 10:21:59;;;;;;;32.53;17.33;;;8.50;52.00;;;-1.24;98.50;95138.78;5071341;28;20074;-62
2023/12/04 10:24:35;;;;;;;36.03;17.98;;;8.80;51.80;;;-0.91;98.10;95137.94;5054418;28;20024;-58
2023/12/04 10:27:11;;;;;;;30.15;17.15;;;9.30;51.60;;;-0.61;96.78;95140.91;5071470;28;20039;-59
2023/12/04 10:29:52;;;;;;;32.40;17.75;;;9.90;51.10;;;0.11;96.77;95143.44;5069641;28;20051;-60
2023/12/04 10:32:21;;;;;;;29.13;17.75;;;11.10;50.60;;;0.68;94.40;95142.44;5066084;28;20028;-59
2023/12/04 10:34:48;;;;;;;29.83;18.60;;;12.20;49.40;;;1.35;93.95;95126.94;5071051;28;20048;-61
2023/12/04 10:37:15;;;;;;;29.05;18.08;;;13.50;48.40;;;2.00;92.65;95123.75;5069648;28;20020;-60
2023/12/04 10:39:51;;;;;;;29.95;19.17;;;15.00;47.00;;;2.71;85.08;95116.91;5070922;28;20047;-61
2023/12/04 10:42:37;;;;;;;30.02;19.88;;;16.70;44.90;;;3.66;83.35;95110.56;5070073;28;20094;-61
2023/12/04 10:45:06;;;;;;;28.00;19.75;;;18.50;42.70;;;3.99;73.85;95105.69;5068669;28;20028;-62
2023/12/04 10:47:35;;;;;;;27.38;18.67;;;19.60;40.80;;;3.91;73.46;95099.75;5070223;28;20046;-61
2023/12/04 10:50:02;;;;;;;28.65;19.65;;;19.60;38.90;;;3.42;69.14;95095.88;5052295;28;20483;-61
2023/12/04 10:52:30;;;;;;;30.30;20.42;;;19.00;38.60;;;3.40;72.59;95090.81;5071268;28;20069;-61
2023/12/04 10:54:58;;;;;;;31.60;19.98;;;18.20;38.80;;;3.11;68.87;95083.88;5069519;28;20016;-56
2023/12/04 10:57:37;;;;;;;32.58;19.17;;;17.40;39.00;;;2.73;68.03;95082.50;5070747;28;20032;-61
2023/12/04 11:00:06;;;;;;;25.00;16.73;;;16.70;39.30;;;2.65;68.06;95095.97;5056650;28;20163;-60
2023/12/04 11:02:37;;;;;;;26.77;17.23;;;16.20;39.80;;;2.52;70.46;95081.19;5070868;28;20348;-60
2023/12/04 11:05:21;;;;;;;26.55;17.08;;;15.80;39.80;;;2.54;70.78;95079.16;5061198;28;20460;-59
2023/12/04 11:08:14;;;;;;;28.05;17.58;;;15.40;39.90;;;2.24;68.87;95063.41;5070094;28;20027;-60
2023/12/04 11:11:00;;;;;;;25.35;16.65;;;15.00;39.70;;;2.18;70.87;95056.44;5068557;28;20103;-60
2023/12/04 11:13:41;;;;;;;27.17;15.75;;;14.40;40.20;;;2.04;70.09;95056.63;5056003;28;20055;-57
2023/12/04 11:16:22;;;;;;;25.90;15.55;;;13.90;40.50;;;1.82;69.90;95053.69;5068614;28;20095;-59
2023/12/04 11:19:01;;;;;;;23.85;15.32;;;13.50;41.00;;;1.68;70.20;95064.59;5068518;28;20382;-60
2023/12/04 11:21:31;;;;;;;28.48;16.15;;;13.00;41.30;;;1.66;70.25;95051.69;5058591;28;20565;-57
2023/12/04 11:23:58;;;;;;;28.45;16.25;;;12.60;41.60;;;1.74;71.82;95061.88;5054839;28;20119;-58
2023/12/04 11:26:26;;;;;;;28.85;16.25;;;12.40;41.90;;;1.52;70.41;95061.53;5062430;28;20114;-57
2023/12/04 11:28:54;;;;;;;25.13;15.82;;;12.20;42.00;;;1.65;72.46;95049.28;5057972;28;20031;-57
2023/12/04 11:31:20;;;;;;;26.48;15.88;;;12.10;42.20;;;1.18;72.53;95046.38;5070444;28;20023;-59
2023/12/04 11:33:46;;;;;;;25.70;16.15;;;12.00;42.40;;;1.30;74.73;95042.00;5069891;28;20034;-60
2023/12/04 11:36:15;;;;;;;26.58;15.88;;;12.00;42.40;;;1.33;73.41;95034.50;5062593;28;20024;-59
2023/12/04 11:38:50;;;;;;;26.17;16.88;;;12.00;42.40;;;1.52;74.08;95047.59;5069960;28;20061;-59
2023/12/04 11:41:25;;;;;;;26.60;16.17;;;12.10;42.40;;;1.68;73.71;95036.50;5070178;28;20031;-56
2023/12/04 11:43:52;;;;;;;24.85;15.45;;;12.10;42.30;;;1.64;71.76;95035.34;5069935;28;20031;-57
2023/12/04 11:46:30;;;;;;;23.98;15.27;;;12.10;42.40;;;1.71;72.80;95030.00;5070299;28;20031;-56
2023/12/04 11:49:31;;;;;;;23.35;14.98;;;12.40;42.30;;;1.85;71.85;95020.94;5069406;28;20020;-57
2023/12/04 11:52:04;;;;;;;23.38;15.32;;;12.60;42.20;;;1.95;71.09;95018.56;5069489;28;20020;-54
2023/12/04 11:55:06;;;;;;;;;;;12.80;42.10;;;2.00;70.21;95010.78;5069755;28;20359;-54
2023/12/04 11:57:40;;;;;;;26.50;15.85;;;12.60;42.40;;;1.85;70.64;95015.69;5070541;28;20263;-54
2023/12/04 12:00:20;;;;;;;24.77;14.45;;;12.50;42.30;;;1.94;71.02;95010.88;5067585;28;20024;-55
2023/12/04 12:02:55;;;;;;;24.50;15.32;;;12.30;42.10;;;1.74;70.92;95011.19;5070479;28;20449;-57
2023/12/04 12:05:23;;;;;;;25.38;15.23;;;11.90;42.30;;;1.68;71.24;95007.59;5069915;28;20024;-59
2023/12/04 12:07:50;;;;;;;26.63;15.82;;;11.60;42.60;;;1.55;71.21;94990.22;5070071;28;20075;-58
2023/12/04 12:10:17;;;;;;;25.83;15.70;;;11.40;42.80;;;1.33;72.45;94978.59;5070116;28;20016;-57
2023/12/04 12:12:44;;;;;;;23.38;14.43;;;11.10;42.90;;;1.15;73.05;94974.97;5069189;28;20085;-58
2023/12/04 12:15:12;;;;;;;23.42;14.48;;;10.70;43.10;;;0.67;74.80;94953.94;5069648;28;20024;-59
2023/12/04 12:17:39;;;;;;;29.85;16.15;;;10.40;43.30;;;0.69;75.91;94962.38;5068565;28;20073;-55
2023/12/04 12:20:09;;;;;;;25.48;14.38;;;10.00;43.60;;;0.30;77.92;94948.63;5058982;28;20073;-54
2023/12/04 12:22:37;;;;;;;26.55;15.10;;;9.80;44.00;;;0.17;80.12;94956.63;5063871;28;20031;-58
2023/12/04 12:25:08;;;;;;;25.83;14.43;;;9.60;44.40;;;0.34;81.16;94952.41;5068604;28;20047;-57
2023/12/04 12:27:34;;;;;;;29.02;17.05;;;9.50;44.70;;;0.45;81.00;94949.09;5069886;28;20024;-58
2023/12/04 12:30:03;;;;;;;25.48;14.02;;;9.50;45.00;;;0.61;80.92;94950.34;5055049;28;20024;-56
2023/12/04 12:32:30;;;;;;;25.70;14.80;;;9.60;45.30;;;0.63;80.16;94964.06;5069549;28;20524;-57
2023/12/04 12:34:56;;;;;;;27.65;15.45;;;9.60;45.30;;;0.62;80.53;94951.94;5069814;28;20465;-55
2023/12/04 12:37:23;;;;;;;25.52;14.80;;;9.60;45.40;;;0.52;80.32;94961.34;5067593;28;20012;-58
2023/12/04 12:39:49;;;;;;;26.33;14.73;;;9.60;45.50;;;0.66;80.31;94960.19;5069527;28;20028;-54
2023/12/04 12:42:29;;;;;;;27.15;14.73;;;9.50;45.60;;;0.55;79.92;94951.22;5056285;28;20036;-52
2023/12/04 12:44:59;;;;;;;25.73;15.13;;;9.50;46.30;;;0.44;80.71;94949.34;5069739;28;20047;-53
2023/12/04 12:47:25;;;;;;;26.98;15.25;;;9.30;45.70;;;0.13;81.58;94927.44;5058812;28;20028;-56
2023/12/04 12:49:52;;;;;;;27.92;15.18;;;9.20;45.80;;;0.11;83.75;94912.94;5069472;28;20084;-54
2023/12/04 12:52:19;;;;;;;29.10;15.60;;;9.00;45.80;;;-0.04;83.59;94914.06;5069916;28;20034;-58
2023/12/04 12:54:45;;;;;;;26.65;14.30;;;8.80;45.90;;;-0.26;84.38;94912.84;5068756;28;20056;-56
2023/12/04 12:57:13;;;;;;;26.08;13.90;;;8.50;46.10;;;-0.54;86.31;94921.88;5070037;28;20483;-55
2023/12/04 12:59:40;;;;;;;30.02;16.50;;;8.30;46.40;;;-0.38;86.86;94902.25;5068636;28;20030;-57
2023/12/04 13:02:07;;;;;;;27.30;14.40;;;8.00;46.80;;;-0.33;87.26;94909.47;5068551;28;20655;-57
2023/12/04 13:04:44;;;;;;;29.83;15.35;;;7.80;47.20;;;-0.40;88.29;94924.44;5069094;28;20064;-58
2023/12/04 13:07:11;;;;;;;29.08;15.32;;;7.60;47.70;;;-0.39;89.02;94907.72;5069074;28;20155;-56
2023/12/04 13:09:38;;;;;;;26.73;13.93;;;7.50;48.00;;;-0.34;89.40;94923.59;5073626;28;20023;-60
2023/12/04 13:12:08;;;;;;;29.02;15.13;;;7.30;48.20;;;-0.43;89.99;94915.19;5071576;28;20032;-59
2023/12/04 13:14:35;;;;;;;28.20;15.30;;;7.30;48.60;;;-0.45;90.36;94919.81;5073026;28;20036;-58
2023/12/04 13:17:03;;;;;;;28.88;14.82;;;7.10;49.40;;;-0.39;91.25;94905.09;5073236;28;20063;-60
2023/12/04 13:19:31;;;;;;;30.48;14.98;;;7.10;49.10;;;-0.43;90.17;94894.25;5071845;28;20111;-60
2023/12/04 13:21:57;;;;;;;30.58;15.02;;;7.10;49.30;;;-0.37;89.39;94882.16;5072480;28;20051;-59
2023/12/04 13:24:23;;;;;;;28.95;15.30;;;7.00;49.30;;;-0.52;89.40;94870.16;5069844;28;20040;-59
2023/12/04 13:26:49;;;;;;;26.67;14.93;;;7.10;49.40;;;-0.57;90.55;94849.06;5072581;28;20036;-60
2023/12/04 13:29:18;;;;;;;26.63;13.75;;;7.00;49.40;;;-0.72;91.27;94838.91;5073016;28;20024;-60
2023/12/04 13:31:46;;;;;;;24.77;13.13;;;7.10;49.40;;;-0.89;92.30;94860.56;5071825;28;20035;-60
2023/12/04 13:34:12;;;;;;;25.15;13.60;;;7.00;49.40;;;-0.68;92.02;94886.38;5056736;28;20485;-59
2023/12/04 13:36:38;;;;;;;26.48;12.82;;;6.90;49.50;;;-0.54;91.99;94889.69;5071656;28;20024;-60
2023/12/04 13:39:04;;;;;;;23.98;12.50;;;7.00;50.40;;;-0.50;89.74;94864.72;5059838;28;20028;-58
2023/12/04 13:44:15;;;;;;;30.50;15.68;;;6.90;49.90;;;-0.95;94.38;94899.59;5071966;28;20027;-57
2023/12/04 13:46:41;;;;;;;24.58;13.68;;;6.70;49.90;;;-0.90;95.74;94867.59;5072956;28;20115;-60
2023/12/04 13:49:08;;;;;;;29.17;14.57;;;6.60;50.10;;;-0.90;96.51;94895.56;5071430;28;20102;-60
2023/12/04 13:51:39;;;;;;;32.60;15.40;;;6.40;50.30;;;-0.96;96.48;94864.00;5071982;28;20035;-58
2023/12/04 13:54:19;;;;;;;28.17;14.68;;;6.30;50.60;;;-0.83;96.41;94862.31;5054287;28;20016;-60
2023/12/04 13:56:53;;;;;;;30.60;14.82;;;6.10;50.90;;;-0.79;96.63;94856.44;5070657;28;20024;-58
2023/12/04 13:59:23;;;;;;;31.70;14.75;;;6.00;51.20;;;-0.86;96.72;94854.91;5072420;28;20027;-60
2023/12/04 14:01:51;;;;;;;29.67;14.95;;;5.90;51.50;;;-0.95;97.69;94856.97;5070857;28;20062;-60
2023/12/04 14:04:18;;;;;;;32.45;16.23;;;5.90;51.70;;;-0.92;97.93;94848.69;5066514;28;20368;-60
2023/12/04 14:06:45;;;;;;;29.92;14.95;;;5.80;52.40;;;-0.94;98.64;94848.94;5052791;28;20375;-60
2023/12/04 14:09:14;;;;;;;30.90;14.80;;;5.80;52.40;;;-1.00;97.90;94841.91;5072115;28;20079;-60
2023/12/04 14:11:44;;;;;;;31.23;15.60;;;5.80;52.00;;;-1.04;98.68;94837.31;5071048;28;20471;-59
2023/12/04 14:14:10;;;;;;;31.52;15.05;;;5.70;52.20;;;-1.00;98.97;94834.06;5071468;28;20028;-60
2023/12/04 14:16:36;;;;;;;31.42;14.65;;;5.70;52.40;;;-1.02;99.27;94836.09;5071650;28;20012;-59
2023/12/04 14:19:02;;;;;;;30.65;15.40;;;5.70;52.50;;;-0.98;99.26;94831.25;5070706;28;20028;-58
2023/12/04 14:21:28;;;;;;;31.95;14.93;;;5.60;52.60;;;-0.94;99.17;94825.38;5072067;28;20275;-59
2023/12/04 14:23:54;;;;;;;27.80;14.77;;;5.60;52.80;;;-1.03;99.26;94818.81;5053110;28;20047;-58
2023/12/04 14:26:20;;;;;;;31.50;15.35;;;5.50;52.90;;;-1.34;99.75;94806.53;5072221;28;20471;-60
2023/12/04 14:28:46;;;;;;;34.10;16.40;;;5.40;52.80;;;-1.40;99.94;94816.00;5071865;28;20027;-60
2023/12/04 14:31:12;;;;;;;31.13;15.20;;;5.30;52.90;;;-1.37;99.86;94813.97;5069774;28;20051;-60
2023/12/04 14:33:38;;;;;;;34.75;15.68;;;5.20;53.00;;;-1.47;100.00;94803.97;5070903;28;20459;-60
2023/12/04 14:36:05;;;;;;;34.42;15.30;;;5.10;53.20;;;-1.70;100.00;94797.44;5068646;28;20042;-58
2023/12/04 14:38:31;;;;;;;37.20;15.90;;;5.00;53.30;;;-1.88;100.00;94808.56;5070410;28;20103;-59
2023/12/04 14:40:57;;;;;;;31.10;15.02;;;4.80;53.30;;;-1.81;100.00;94784.25;5069976;28;20462;-60
2023/12/04 14:43:22;;;;;;;33.63;15.60;;;4.70;53.50;;;-1.99;100.00;94782.28;5069633;28;20034;-59
2023/12/04 14:45:48;;;;;;;35.40;16.63;;;4.60;53.70;;;-1.95;100.00;94773.03;5071042;28;20026;-60
2023/12/04 14:48:14;;;;;;;41.17;18.15;;;4.50;53.90;;;-2.00;100.00;94778.88;5069741;28;20031;-58
2023/12/04 14:50:40;;;;;;;45.25;18.13;;;4.40;54.10;;;-2.02;100.00;94780.09;5071150;28;20024;-60
2023/12/04 14:54:14;;;;;;;44.05;18.25;;;4.30;54.30;;;-2.23;100.00;94786.34;5071105;28;20073;-60
2023/12/04 15:17:33;;;;;;;49.80;19.85;;;3.30;55.70;;;-2.93;100.00;94734.69;5071396;28;20059;-60
2023/12/04 15:22:25;;;;;;;48.67;18.60;;;3.10;56.00;;;-2.95;100.00;94746.31;5071101;28;20024;-60
2023/12/04 15:24:51;;;;;;;46.42;19.63;;;3.00;56.20;;;-2.95;100.00;94734.09;5070148;28;20016;-59
2023/12/04 15:27:18;;;;;;;48.70;19.48;;;2.90;56.30;;;-2.98;100.00;94747.53;5070924;28;20382;-57
2023/12/04 15:29:44;;;;;;;50.15;19.15;;;2.90;56.50;;;-2.97;100.00;94737.91;5069625;28;20107;-59
2023/12/04 15:32:10;;;;;;;51.22;20.08;;;2.90;56.60;;;-2.97;100.00;94775.19;5070657;28;20084;-61
2023/12/04 15:34:35;;;;;;;48.95;19.55;;;2.80;56.80;;;-3.03;100.00;94726.50;5070785;28;20020;-60
2023/12/04 15:37:02;;;;;;;56.70;20.75;;;2.80;57.00;;;-2.97;100.00;94771.78;5064128;28;20497;-60
2023/12/04 15:39:28;;;;;;;51.28;18.60;;;2.80;57.10;;;-3.16;100.00;94729.91;5070775;28;20386;-60
2023/12/04 15:41:53;;;;;;;50.85;19.40;;;2.70;57.20;;;-3.14;100.00;94747.91;5068979;28;20032;-60
2023/12/04 15:44:21;;;;;;;54.97;20.27;;;2.70;57.20;;;-3.13;100.00;94736.53;5070751;28;20023;-60
2023/12/04 15:46:46;;;;;;;52.00;19.17;;;2.70;57.30;;;-3.26;100.00;94700.81;5070480;28;20379;-60
2023/12/04 15:49:14;;;;;;;49.47;19.02;;;2.60;57.50;;;-3.34;100.00;94743.50;5065261;28;20073;-60
2023/12/04 15:51:40;;;;;;;47.92;17.85;;;2.60;57.60;;;-3.42;100.00;94722.03;5070400;28;20463;-58
2023/12/04 15:54:06;;;;;;;51.60;19.30;;;2.50;57.60;;;-3.44;100.00;94711.84;5069257;28;20016;-60
2023/12/04 15:56:32;;;;;;;50.08;19.02;;;2.40;57.60;;;-3.34;100.00;94721.88;5069997;28;20051;-60
2023/12/04 15:58:58;;;;;;;51.05;19.38;;;2.40;57.70;;;-3.30;100.00;94715.25;5069535;28;20351;-60
2023/12/04 16:01:24;;;;;;;49.17;18.20;;;2.40;57.90;;;-3.33;100.00;94706.03;5069025;28;20062;-60
2023/12/04 16:03:49;;;;;;;46.95;17.95;;;2.40;58.00;;;-3.42;100.00;94701.22;5070235;28;20051;-60
2023/12/04 16:06:15;;;;;;;47.97;18.45;;;2.30;58.10;;;-3.40;100.00;94701.81;5051836;28;20115;-58
2023/12/04 16:08:42;;;;;;;49.13;19.10;;;2.30;58.20;;;-3.27;100.00;94712.25;5069730;28;20020;-57
2023/12/04 16:11:08;;;;;;;51.22;20.08;;;2.30;58.40;;;-3.21;100.00;94708.03;5069643;28;20483;-59
2023/12/04 16:13:35;;;;;;;49.38;19.60;;;2.30;58.50;;;-3.19;100.00;94693.81;5029747;22;20411;-56
2023/12/04 16:16:02;;;;;;;56.83;20.00;;;2.30;58.60;;;-3.20;100.00;94702.63;5007424;28;20335;-53
2023/12/04 16:18:28;;;;;;;47.20;18.23;;;2.40;58.70;;;-3.23;100.00;94697.81;4998432;28;20484;-55
2023/12/04 16:20:54;;;;;;;53.22;19.55;;;2.40;58.70;;;-3.28;100.00;94680.19;5009420;28;20048;-54
2023/12/04 16:23:20;;;;;;;52.35;18.65;;;2.40;58.70;;;-3.24;100.00;94711.06;5009077;28;20067;-56
2023/12/04 16:25:46;;;;;;;49.55;18.20;;;2.40;58.70;;;-3.22;100.00;94704.66;5000653;28;20375;-56
2023/12/04 16:28:12;;;;;;;48.47;17.63;;;2.40;58.80;;;-3.28;100.00;94703.63;5004056;28;20068;-57
2023/12/04 16:30:38;;;;;;;45.33;17.35;;;2.40;58.80;;;-3.28;100.00;94706.25;5006757;28;20021;-53
2023/12/04 16:33:04;;;;;;;47.13;18.35;;;2.40;58.90;;;-3.21;100.00;94684.59;5002426;28;20030;-59
2023/12/04 16:35:30;;;;;;;53.50;18.27;;;2.30;58.90;;;-3.24;100.00;94685.00;5005785;28;20057;-54
2023/12/04 16:37:56;;;;;;;54.17;18.60;;;2.30;59.00;;;-3.20;100.00;94683.59;5004440;28;20021;-57
2023/12/04 16:40:22;;;;;;;43.38;17.88;;;2.30;59.00;;;-3.16;100.00;94679.59;5007931;28;20052;-56
2023/12/04 16:42:48;;;;;;;43.25;17.95;;;2.40;59.00;;;-3.14;100.00;94691.41;5005296;28;20443;-55
2023/12/04 16:45:14;;;;;;;48.28;17.92;;;2.30;59.00;;;-3.15;100.00;94679.38;5009437;28;20053;-56
2023/12/04 16:47:40;;;;;;;46.00;16.70;;;2.40;59.10;;;-3.16;100.00;94685.59;5008421;28;20082;-56
2023/12/04 16:50:06;;;;;;;53.35;17.52;;;2.40;59.10;;;-3.20;100.00;94680.97;5007886;28;20029;-57
2023/12/04 16:52:32;;;;;;;40.67;16.73;;;2.40;59.00;;;-3.16;100.00;94677.78;5008831;28;20374;-55
2023/12/04 16:54:58;;;;;;;49.10;18.52;;;2.40;59.00;;;-3.19;100.00;94675.59;5009038;28;20023;-55
2023/12/04 16:57:24;;;;;;;48.95;18.00;;;2.40;59.10;;;-3.17;100.00;94676.16;5013313;28;20187;-54
2023/12/04 16:59:51;;;;;;;48.03;17.17;;;2.40;59.10;;;-3.17;100.00;94675.38;5006969;28;20041;-57
2023/12/04 17:02:17;;;;;;;47.45;18.55;;;2.40;59.10;;;-3.15;100.00;94678.59;5009641;28;20044;-58
2023/12/04 17:04:43;;;;;;;41.40;16.65;;;2.40;59.20;;;-3.13;100.00;94679.19;5005501;28;20026;-55
2023/12/04 17:07:08;;;;;;;47.78;18.58;;;2.40;59.20;;;-3.13;100.00;94682.59;5008303;28;20028;-56
2023/12/04 17:09:36;;;;;;;46.25;18.00;;;2.40;59.20;;;-3.10;100.00;94677.00;4997843;28;20030;-54
2023/12/04 17:12:03;;;;;;;43.88;17.60;;;2.50;59.30;;;-3.12;100.00;94675.59;4999355;28;20041;-57
2023/12/04 17:14:30;;;;;;;52.85;18.25;;;2.50;59.30;;;-3.10;100.00;94684.00;5009819;28;20025;-55
2023/12/04 17:16:56;;;;;;;49.72;18.58;;;2.50;59.40;;;-3.08;100.00;94674.97;5005518;28;20426;-54
2023/12/04 17:19:22;;;;;;;49.10;18.02;;;2.50;59.40;;;-3.09;100.00;94675.19;5003183;28;20486;-57
2023/12/04 17:21:48;;;;;;;45.22;17.90;;;2.50;59.50;;;-3.09;100.00;94672.56;4992360;28;20446;-54
2023/12/04 17:24:14;;;;;;;50.25;19.35;;;2.50;59.50;;;-3.08;100.00;94663.75;5010890;28;20079;-57
2023/12/04 17:26:40;;;;;;;52.10;18.98;;;2.50;59.50;;;-3.06;100.00;94659.16;5006631;28;20036;-58
2023/12/04 17:29:07;;;;;;;48.63;18.58;;;2.50;59.50;;;-3.06;100.00;94651.31;5007003;28;20025;-53
2023/12/04 17:31:33;;;;;;;50.35;18.60;;;2.50;59.60;;;-3.04;100.00;94639.69;5008228;28;20025;-56
2023/12/04 17:33:59;;;;;;;45.47;18.58;;;2.50;59.60;;;-3.05;100.00;94638.09;5005995;28;20108;-58
2023/12/04 17:36:25;;;;;;;50.28;18.33;;;2.50;59.70;;;-3.05;100.00;94632.88;5003412;28;20021;-56
2023/12/04 17:38:51;;;;;;;52.15;19.42;;;2.60;59.80;;;-3.03;100.00;94624.88;5004105;28;20021;-57
2023/12/04 17:41:17;;;;;;;42.65;17.10;;;2.60;59.80;;;-3.00;100.00;94626.28;5002350;28;20036;-55
2023/12/04 17:43:43;;;;;;;42.42;18.42;;;2.60;59.80;;;-2.99;100.00;94630.47;5000907;28;20026;-56
2023/12/04 17:46:09;;;;;;;43.75;17.63;;;2.70;59.80;;;-2.98;100.00;94617.22;5005226;28;20027;-59
2023/12/04 17:48:36;;;;;;;48.75;18.88;;;2.70;59.80;;;-2.97;100.00;94611.03;5001272;28;21102;-56
2023/12/04 17:51:03;;;;;;;48.55;17.48;;;2.70;59.90;;;-2.97;100.00;94612.84;5001006;28;20021;-57
2023/12/04 17:53:29;;;;;;;45.03;17.98;;;2.60;59.80;;;-2.95;100.00;94608.19;5006327;28;20428;-58
2023/12/04 17:55:56;;;;;;;49.45;18.27;;;2.70;59.90;;;-2.93;100.00;94604.38;4998355;28;20029;-57
2023/12/04 17:58:22;;;;;;;41.85;17.25;;;2.70;59.90;;;-2.95;100.00;94600.38;5001708;28;20025;-53
2023/12/04 18:00:48;;;;;;;50.90;18.42;;;2.70;59.90;;;-2.96;100.00;94602.19;4997041;28;20037;-59
2023/12/04 18:03:15;;;;;;;47.03;17.90;;;2.70;59.90;;;-2.99;100.00;94597.38;5005441;28;20064;-58
2023/12/04 18:05:43;;;;;;;49.90;18.35;;;2.70;59.90;;;-3.00;100.00;94601.00;5003525;28;20021;-58
2023/12/04 18:08:10;;;;;;;47.45;18.75;;;2.60;59.90;;;-3.02;100.00;94608.22;5003998;28;20080;-54
2023/12/04 18:10:39;;;;;;;48.00;18.40;;;2.60;60.00;;;-3.01;100.00;94612.41;5007150;28;20040;-56
2023/12/04 18:13:04;;;;;;;52.72;19.45;;;2.60;60.90;;;-3.03;100.00;94607.41;5005596;28;20099;-59
2023/12/04 18:15:30;;;;;;;49.10;18.10;;;2.60;60.10;;;-3.02;100.00;94606.41;5004894;28;20033;-57
2023/12/04 18:17:56;;;;;;;56.17;18.23;;;2.60;60.10;;;-2.99;100.00;94609.63;5007201;28;20021;-56
2023/12/04 18:20:22;;;;;;;44.67;17.35;;;2.60;60.10;;;-2.97;100.00;94620.66;5007305;28;20028;-58
2023/12/04 18:22:51;;;;;;;47.13;18.50;;;2.60;60.20;;;-2.98;100.00;94614.63;5003320;28;20029;-57
2023/12/04 18:25:18;;;;;;;47.60;17.40;;;2.60;60.20;;;-3.05;100.00;94612.03;5006251;28;20026;-56
2023/12/04 18:27:45;;;;;;;46.10;17.70;;;2.70;60.20;;;-3.07;100.00;94605.41;5002199;28;20515;-56
2023/12/04 18:30:13;;;;;;;49.83;18.88;;;2.60;60.20;;;-3.04;100.00;94599.78;4998460;28;20026;-57
2023/12/04 18:32:39;;;;;;;51.92;19.98;;;2.60;60.20;;;-3.02;100.00;94605.59;5002115;28;20496;-55
2023/12/04 18:35:07;;;;;;;52.17;19.80;;;2.60;60.30;;;-3.02;100.00;94603.81;5002213;28;20064;-59
2023/12/04 18:38:03;;;;;;;42.63;17.98;;;2.60;60.30;;;-3.02;100.00;94603.00;5006146;28;20120;-56
2023/12/04 18:40:29;;;;;;;53.47;20.77;;;2.50;60.30;;;-3.12;100.00;94606.03;5008449;28;20041;-54
2023/12/04 18:42:55;;;;;;;51.33;21.20;;;2.50;60.20;;;-3.20;100.00;94595.81;4999235;28;20029;-56
2023/12/04 18:45:22;;;;;;;71.32;20.20;;;2.50;60.10;;;-3.28;100.00;94593.44;5000201;28;20032;-57
2023/12/04 18:48:00;;;;;;;55.70;20.00;;;2.40;60.00;;;-3.37;100.00;94585.03;4996221;28;20073;-54
2023/12/04 18:50:31;;;;;;;53.53;17.95;;;2.40;60.00;;;-3.45;100.00;94589.63;5004323;28;20068;-57
2023/12/04 18:53:02;;;;;;;51.85;17.80;;;2.30;59.90;;;-3.48;100.00;94598.66;5003629;28;20430;-59
2023/12/04 18:55:28;;;;;;;46.33;16.77;;;2.30;60.60;;;-3.65;100.00;94579.25;5004684;28;20121;-57
2023/12/04 18:57:54;;;;;;;52.65;19.63;;;2.20;59.90;;;-3.73;100.00;94586.25;4999763;28;20555;-53
2023/12/04 19:00:24;;;;;;;54.67;16.65;;;2.10;59.90;;;-4.03;100.00;94579.84;5002080;28;20108;-55
2023/12/04 19:02:54;;;;;;;50.70;18.70;;;2.00;59.80;;;-4.20;100.00;94575.00;4959315;28;26299;-57